Time;durP1;ratioP1;P1;durP2;ratioP2;P2;SDS_P1;SDS_P2;PMS_P1;PMS_P2;Temp;Humidity;BMP_temperature;BMP_pressure;BME280_temperature;BME280_humidity;BME280_pressure;Samples;Min_cycle;Max_cycle;Signal;HPM_P1;HPM_P2
2022/07/12 00:01:34;;;;;;;10.20;5.25;;;22.30;99.90;;;;;;5070242;28;20205;-67
2022/07/12 00:04:00;;;;;;;8.55;5.07;;;22.30;99.90;;;;;;5086126;28;20182;-67
2022/07/12 00:06:27;;;;;;;10.20;5.40;;;22.30;99.90;;;;;;5083297;28;20189;-68
2022/07/12 00:08:54;;;;;;;7.40;5.20;;;22.40;99.90;;;;;;5079497;28;20201;-68
2022/07/12 00:11:20;;;;;;;7.50;5.37;;;22.40;99.90;;;;;;5087636;28;20994;-67
2022/07/12 00:13:46;;;;;;;8.63;5.17;;;22.30;99.90;;;;;;5072002;28;20228;-69
2022/07/12 00:16:13;;;;;;;6.40;4.93;;;22.30;99.90;;;;;;5055355;28;20210;-70
2022/07/12 00:18:41;;;;;;;7.83;5.47;;;22.30;99.90;;;;;;5059746;28;20194;-68
2022/07/12 00:21:07;;;;;;;11.93;5.67;;;22.30;99.90;;;;;;5085455;28;20206;-68
2022/07/12 00:23:35;;;;;;;7.27;5.37;;;22.30;99.90;;;;;;5086497;28;20272;-67
2022/07/12 00:26:04;;;;;;;9.20;5.17;;;22.30;99.90;;;;;;5068478;28;20813;-70
2022/07/12 00:28:31;;;;;;;5.70;5.10;;;22.30;99.90;;;;;;5076844;28;20175;-68
2022/07/12 00:30:59;;;;;;;7.70;5.00;;;22.30;99.90;;;;;;5068713;28;20252;-68
2022/07/12 00:33:26;;;;;;;6.03;4.70;;;22.30;99.90;;;;;;5086270;28;20182;-67
2022/07/12 00:35:52;;;;;;;7.63;5.13;;;22.30;99.90;;;;;;5087804;28;20321;-69
2022/07/12 00:38:18;;;;;;;9.43;5.30;;;22.30;99.90;;;;;;5079156;28;20279;-69
2022/07/12 00:40:45;;;;;;;6.33;4.90;;;22.20;99.90;;;;;;5086835;28;20706;-68
2022/07/12 00:43:11;;;;;;;9.60;5.00;;;22.20;99.90;;;;;;5087271;28;20182;-68
2022/07/12 00:45:37;;;;;;;6.60;5.10;;;22.20;99.90;;;;;;5062083;28;20189;-69
2022/07/12 00:48:06;;;;;;;6.37;5.43;;;22.20;99.90;;;;;;5081805;28;20190;-70
2022/07/12 00:50:32;;;;;;;5.77;4.93;;;22.20;99.90;;;;;;5063259;28;20190;-67
2022/07/12 00:52:59;;;;;;;7.97;4.97;;;22.20;99.90;;;;;;5081584;28;20267;-70
2022/07/12 00:55:25;;;;;;;8.67;5.53;;;22.10;99.90;;;;;;5078618;28;20215;-67
2022/07/12 00:57:52;;;;;;;6.80;5.60;;;22.10;99.90;;;;;;5058002;28;21022;-69
2022/07/12 01:00:28;;;;;;;9.70;5.40;;;22.20;99.90;;;;;;5079646;28;20220;-68
2022/07/12 01:02:57;;;;;;;5.97;5.33;;;22.20;99.90;;;;;;5065672;28;20182;-69
2022/07/12 01:05:26;;;;;;;8.17;5.30;;;22.10;99.90;;;;;;5084944;28;20182;-69
2022/07/12 01:07:55;;;;;;;8.87;5.27;;;22.20;99.90;;;;;;5064775;28;20204;-68
2022/07/12 01:10:22;;;;;;;7.20;5.20;;;22.20;99.90;;;;;;5078262;28;20222;-68
2022/07/12 01:12:50;;;;;;;6.13;4.83;;;22.20;99.90;;;;;;5084053;28;20283;-67
2022/07/12 01:15:17;;;;;;;6.73;5.33;;;22.10;99.90;;;;;;5082311;28;20305;-68
2022/07/12 01:17:46;;;;;;;7.20;5.23;;;22.10;99.90;;;;;;5055827;28;20211;-68
2022/07/12 01:20:13;;;;;;;11.53;4.90;;;22.10;99.90;;;;;;5072395;28;20480;-68
2022/07/12 01:22:49;;;;;;;7.67;4.80;;;22.10;99.90;;;;;;5089976;28;20174;-68
2022/07/12 01:25:17;;;;;;;7.43;5.10;;;22.10;99.90;;;;;;5076957;28;20265;-67
2022/07/12 01:27:43;;;;;;;6.63;5.13;;;22.10;99.90;;;;;;5087345;28;20259;-68
2022/07/12 01:30:10;;;;;;;9.50;5.30;;;22.10;99.90;;;;;;5090314;28;20202;-68
2022/07/12 01:32:36;;;;;;;6.73;4.80;;;22.10;99.90;;;;;;5090929;28;20182;-68
2022/07/12 01:35:06;;;;;;;8.77;5.10;;;22.10;99.90;;;;;;5086347;28;20186;-68
2022/07/12 01:37:36;;;;;;;10.23;5.10;;;22.10;99.90;;;;;;5077114;28;20229;-67
2022/07/12 01:40:06;;;;;;;7.03;5.20;;;22.10;99.90;;;;;;5074075;28;20205;-68
2022/07/12 01:42:33;;;;;;;6.60;4.93;;;22.10;99.90;;;;;;5087404;28;20202;-69
2022/07/12 01:45:01;;;;;;;5.30;4.80;;;22.10;99.90;;;;;;5062018;28;20278;-68
2022/07/12 01:47:31;;;;;;;7.87;4.97;;;22.10;99.90;;;;;;5090680;28;20316;-67
2022/07/12 01:49:58;;;;;;;8.00;5.17;;;22.00;99.90;;;;;;5087243;28;20187;-67
2022/07/12 01:52:25;;;;;;;8.80;5.53;;;22.00;99.90;;;;;;5088009;28;20641;-69
2022/07/12 01:54:53;;;;;;;6.80;4.87;;;22.00;99.90;;;;;;5082050;28;20202;-67
2022/07/12 01:57:21;;;;;;;6.73;5.77;;;22.00;99.90;;;;;;5065093;28;20639;-69
2022/07/12 01:59:47;;;;;;;7.43;5.03;;;22.00;99.90;;;;;;5088929;28;20305;-67
2022/07/12 02:02:17;;;;;;;5.33;4.83;;;22.00;99.90;;;;;;5090303;28;20696;-69
2022/07/12 02:04:44;;;;;;;7.70;5.07;;;22.00;99.90;;;;;;5087590;28;20638;-69
2022/07/12 02:07:12;;;;;;;6.13;4.90;;;21.90;99.90;;;;;;5089777;28;20303;-68
2022/07/12 02:09:38;;;;;;;8.00;5.30;;;21.90;99.90;;;;;;5074906;28;20680;-70
2022/07/12 02:12:05;;;;;;;7.53;5.10;;;21.90;99.90;;;;;;5079740;28;20194;-68
2022/07/12 02:14:31;;;;;;;6.67;5.00;;;21.90;99.90;;;;;;5081030;28;20191;-69
2022/07/12 02:16:57;;;;;;;7.67;5.53;;;21.90;99.90;;;;;;5080993;28;20212;-67
2022/07/12 02:19:23;;;;;;;6.47;4.70;;;21.80;99.90;;;;;;5089065;28;20266;-68
2022/07/12 02:21:50;;;;;;;6.93;5.30;;;21.80;99.90;;;;;;5086891;28;20187;-67
2022/07/12 02:24:16;;;;;;;7.93;5.50;;;21.80;99.90;;;;;;5059537;28;20273;-69
2022/07/12 02:26:43;;;;;;;8.03;4.63;;;21.80;99.90;;;;;;5087189;28;20267;-68
2022/07/12 02:29:10;;;;;;;8.13;4.67;;;21.80;99.90;;;;;;5089353;28;20662;-67
2022/07/12 02:31:37;;;;;;;8.37;5.37;;;21.80;99.90;;;;;;5052644;28;20200;-68
2022/07/12 02:34:04;;;;;;;7.43;5.10;;;21.80;99.90;;;;;;5063443;28;20210;-68
2022/07/12 02:36:33;;;;;;;5.60;5.07;;;21.80;99.90;;;;;;5076479;28;20190;-67
2022/07/12 02:39:04;;;;;;;6.50;5.20;;;21.70;99.90;;;;;;5080403;28;20265;-68
2022/07/12 02:41:31;;;;;;;7.53;5.60;;;21.70;99.90;;;;;;5065729;28;20936;-69
2022/07/12 02:43:59;;;;;;;8.73;4.80;;;21.70;99.90;;;;;;5062606;28;20496;-68
2022/07/12 02:46:27;;;;;;;6.17;5.47;;;21.80;99.90;;;;;;5084930;28;20190;-69
2022/07/12 02:48:54;;;;;;;7.40;5.33;;;21.70;99.90;;;;;;5089088;28;20197;-70
2022/07/12 02:51:21;;;;;;;6.33;5.00;;;21.80;99.90;;;;;;5079355;28;20606;-68
2022/07/12 02:53:47;;;;;;;9.37;5.20;;;21.80;99.90;;;;;;5084370;28;20189;-68
2022/07/12 02:56:13;;;;;;;6.20;5.60;;;21.80;99.90;;;;;;5085225;28;20919;-68
2022/07/12 02:58:40;;;;;;;6.60;5.27;;;21.80;99.90;;;;;;5083568;28;20190;-68
2022/07/12 03:01:06;;;;;;;8.70;5.40;;;21.80;99.90;;;;;;5085505;28;20222;-69
2022/07/12 03:03:32;;;;;;;7.13;5.13;;;21.90;99.90;;;;;;5064099;28;20187;-67
2022/07/12 03:05:59;;;;;;;5.70;5.13;;;21.90;99.90;;;;;;5047099;28;20240;-70
2022/07/12 03:08:25;;;;;;;10.10;5.20;;;21.90;99.90;;;;;;5067974;28;20209;-69
2022/07/12 03:10:51;;;;;;;7.57;4.70;;;21.90;99.90;;;;;;5088272;28;20186;-67
2022/07/12 03:13:19;;;;;;;7.10;5.10;;;22.00;99.90;;;;;;5074178;28;20182;-68
2022/07/12 03:15:45;;;;;;;5.37;4.83;;;21.90;99.90;;;;;;5087206;28;20630;-68
2022/07/12 03:18:13;;;;;;;7.83;5.63;;;21.90;99.90;;;;;;5068505;28;20705;-69
2022/07/12 03:20:39;;;;;;;5.73;5.10;;;22.00;99.90;;;;;;5089091;28;20206;-67
2022/07/12 03:23:05;;;;;;;5.37;4.87;;;22.00;99.90;;;;;;5087978;28;20590;-68
2022/07/12 03:25:31;;;;;;;5.80;4.90;;;22.00;99.90;;;;;;5074665;28;20239;-68
2022/07/12 03:27:58;;;;;;;5.70;4.80;;;22.00;99.90;;;;;;5086693;28;20193;-68
2022/07/12 03:30:25;;;;;;;11.37;4.90;;;22.00;99.90;;;;;;5074089;28;20189;-68
2022/07/12 03:32:51;;;;;;;5.83;4.70;;;22.00;99.90;;;;;;5087676;28;20209;-68
2022/07/12 03:35:17;;;;;;;5.40;4.77;;;22.00;99.90;;;;;;5087490;28;20227;-68
2022/07/12 03:37:47;;;;;;;6.57;4.43;;;22.00;99.90;;;;;;5083097;28;20194;-68
2022/07/12 03:40:16;;;;;;;6.50;4.70;;;22.00;99.90;;;;;;5088307;28;20214;-68
2022/07/12 03:42:48;;;;;;;8.17;4.83;;;22.00;99.90;;;;;;5084450;28;20193;-68
2022/07/12 03:45:15;;;;;;;7.03;4.87;;;22.00;99.90;;;;;;5064699;28;20193;-67
2022/07/12 03:47:42;;;;;;;6.30;4.63;;;21.90;99.90;;;;;;5087448;28;20265;-68
2022/07/12 03:50:14;;;;;;;6.83;4.77;;;21.90;99.90;;;;;;5083805;28;20647;-68
2022/07/12 03:52:42;;;;;;;6.17;5.10;;;21.90;99.90;;;;;;5065486;28;20186;-69
2022/07/12 03:55:11;;;;;;;7.93;5.20;;;21.90;99.90;;;;;;5071466;28;20235;-68
2022/07/12 03:57:37;;;;;;;8.17;5.17;;;21.90;99.90;;;;;;5086666;28;20657;-68
2022/07/12 04:00:10;;;;;;;7.67;4.67;;;21.90;99.90;;;;;;5086718;28;21389;-69
2022/07/12 04:02:37;;;;;;;6.53;5.00;;;21.90;99.90;;;;;;5062291;28;20215;-68
2022/07/12 04:05:05;;;;;;;5.97;5.10;;;21.90;99.90;;;;;;5070962;28;20213;-68
2022/07/12 04:07:33;;;;;;;4.73;4.33;;;21.90;99.90;;;;;;5066016;28;20215;-70
2022/07/12 04:09:59;;;;;;;8.17;5.20;;;21.90;99.90;;;;;;5084097;28;20197;-68
2022/07/12 04:12:26;;;;;;;5.07;4.43;;;21.90;99.90;;;;;;5054627;28;20214;-68
2022/07/12 04:14:52;;;;;;;8.73;4.70;;;22.00;99.90;;;;;;5076947;28;20570;-69
2022/07/12 04:17:19;;;;;;;5.53;4.83;;;22.00;99.90;;;;;;5083781;28;20202;-69
2022/07/12 04:19:45;;;;;;;7.80;4.90;;;22.10;99.90;;;;;;5082182;28;20274;-68
2022/07/12 04:22:11;;;;;;;6.67;5.13;;;22.10;99.90;;;;;;5087452;28;20194;-68
2022/07/12 04:24:37;;;;;;;6.97;5.07;;;22.10;99.90;;;;;;5066463;28;20277;-68
2022/07/12 04:27:04;;;;;;;6.17;5.20;;;22.20;99.90;;;;;;5086178;28;20201;-68
2022/07/12 04:29:30;;;;;;;5.77;5.20;;;22.20;99.90;;;;;;5085391;28;22150;-68
2022/07/12 04:31:56;;;;;;;6.43;5.20;;;22.30;99.90;;;;;;5047114;28;20207;-71
2022/07/12 04:34:23;;;;;;;6.53;4.85;;;22.40;99.90;;;;;;5079498;28;20260;-70
2022/07/12 04:36:50;;;;;;;6.57;4.90;;;22.40;99.90;;;;;;5079107;28;20639;-69
2022/07/12 04:39:16;;;;;;;8.07;5.10;;;22.50;99.90;;;;;;5059450;28;20190;-68
2022/07/12 04:41:46;;;;;;;5.00;4.50;;;22.60;99.90;;;;;;5079461;28;20219;-68
2022/07/12 04:44:12;;;;;;;5.53;4.60;;;22.70;99.90;;;;;;5087154;28;20252;-68
2022/07/12 04:46:38;;;;;;;5.65;4.75;;;22.70;99.90;;;;;;5078840;28;20194;-68
2022/07/12 04:49:06;;;;;;;6.43;4.70;;;22.80;99.90;;;;;;5082861;28;20181;-68
2022/07/12 04:51:32;;;;;;;5.83;4.97;;;22.80;99.90;;;;;;5070679;28;20190;-69
2022/07/12 04:53:59;;;;;;;11.40;5.32;;;22.90;99.90;;;;;;5072577;28;20277;-68
2022/07/12 04:56:25;;;;;;;13.95;5.95;;;22.90;99.90;;;;;;5075792;28;20210;-68
2022/07/12 04:58:51;;;;;;;21.38;6.93;;;23.00;99.90;;;;;;5087261;28;20654;-69
2022/07/12 05:01:19;;;;;;;33.17;7.00;;;23.00;99.90;;;;;;5088856;28;20236;-68
2022/07/12 05:03:45;;;;;;;11.75;5.80;;;23.10;99.90;;;;;;5078975;28;20171;-68
2022/07/12 05:06:11;;;;;;;11.35;5.55;;;23.20;99.90;;;;;;5084085;28;20266;-68
2022/07/12 05:08:38;;;;;;;8.52;5.03;;;23.30;99.90;;;;;;5076404;28;20193;-69
2022/07/12 05:11:06;;;;;;;7.80;5.05;;;23.30;99.90;;;;;;5090136;28;20190;-69
2022/07/12 05:13:32;;;;;;;7.50;5.00;;;23.40;99.90;;;;;;5087913;28;20642;-70
2022/07/12 05:15:58;;;;;;;8.15;5.07;;;23.50;99.90;;;;;;5084683;28;20664;-68
2022/07/12 05:18:25;;;;;;;5.10;4.38;;;23.50;99.90;;;;;;5063670;28;20867;-68
2022/07/12 05:20:51;;;;;;;7.67;4.80;;;23.60;99.90;;;;;;5071561;28;20214;-68
2022/07/12 05:23:17;;;;;;;6.10;4.70;;;23.60;99.90;;;;;;5086196;28;20271;-68
2022/07/12 05:25:48;;;;;;;8.60;4.47;;;23.60;99.90;;;;;;5069947;28;20288;-68
2022/07/12 05:28:18;;;;;;;5.88;4.70;;;23.60;99.90;;;;;;5078182;28;20278;-71
2022/07/12 05:30:45;;;;;;;7.18;4.72;;;23.70;99.90;;;;;;5086299;28;20345;-69
2022/07/12 05:33:14;;;;;;;9.60;4.75;;;23.70;99.90;;;;;;5059983;28;20656;-68
2022/07/12 05:35:40;;;;;;;6.18;4.32;;;23.80;99.90;;;;;;5087035;28;20191;-68
2022/07/12 05:38:07;;;;;;;4.85;4.35;;;23.80;99.90;;;;;;5048220;28;20658;-69
2022/07/12 05:40:33;;;;;;;4.72;4.20;;;23.90;99.90;;;;;;5059328;28;21119;-70
2022/07/12 05:42:59;;;;;;;5.82;4.28;;;24.00;99.90;;;;;;5087585;28;20634;-69
2022/07/12 05:45:25;;;;;;;5.50;4.15;;;24.00;99.90;;;;;;5074494;28;20197;-69
2022/07/12 05:47:52;;;;;;;4.63;4.22;;;24.10;99.90;;;;;;5060496;28;20186;-71
2022/07/12 05:50:19;;;;;;;4.35;3.75;;;24.10;99.90;;;;;;5080833;28;20269;-68
2022/07/12 05:55:30;;;;;;;7.80;4.45;;;24.30;99.90;;;;;;5069942;28;20193;-70
2022/07/12 05:57:56;;;;;;;5.95;4.50;;;24.40;99.90;;;;;;5066350;28;20197;-68
2022/07/12 06:00:22;;;;;;;6.53;4.28;;;24.50;99.90;;;;;;5067378;28;20206;-68
2022/07/12 06:02:49;;;;;;;5.72;3.85;;;24.70;99.90;;;;;;5079276;28;20194;-69
2022/07/12 06:05:18;;;;;;;7.60;4.35;;;24.80;99.90;;;;;;5085009;28;20282;-68
2022/07/12 06:07:45;;;;;;;9.95;4.50;;;24.90;99.90;;;;;;5094487;28;20175;-68
2022/07/12 06:10:12;;;;;;;5.05;3.50;;;25.10;99.90;;;;;;5074626;28;20285;-68
2022/07/12 06:12:38;;;;;;;6.55;4.10;;;25.30;99.90;;;;;;5083436;28;20190;-70
2022/07/12 06:15:06;;;;;;;7.20;3.80;;;25.40;99.90;;;;;;5062133;28;20877;-68
2022/07/12 06:17:35;;;;;;;6.30;4.40;;;25.40;99.90;;;;;;5073786;28;20608;-71
2022/07/12 06:20:02;;;;;;;6.88;3.60;;;25.50;99.90;;;;;;5064901;28;20301;-70
2022/07/12 06:22:28;;;;;;;5.00;3.92;;;25.50;99.90;;;;;;5086394;28;20190;-69
2022/07/12 06:24:55;;;;;;;6.15;3.50;;;25.60;99.90;;;;;;5084873;28;20178;-68
2022/07/12 06:27:21;;;;;;;8.68;4.00;;;25.70;99.90;;;;;;5051167;28;20204;-70
2022/07/12 06:29:50;;;;;;;5.43;3.85;;;25.80;99.90;;;;;;5065973;28;20192;-68
2022/07/12 06:32:17;;;;;;;6.95;3.75;;;25.80;99.90;;;;;;5052628;28;20189;-68
2022/07/12 06:34:48;;;;;;;5.53;3.67;;;25.90;99.90;;;;;;5056859;28;20187;-68
2022/07/12 06:37:15;;;;;;;7.55;3.90;;;25.90;99.90;;;;;;5065714;28;20723;-68
2022/07/12 06:39:41;;;;;;;5.25;3.78;;;26.00;99.90;;;;;;5042349;28;20625;-69
2022/07/12 06:42:08;;;;;;;3.95;3.55;;;26.00;99.90;;;;;;5086358;28;20220;-69
2022/07/12 06:44:34;;;;;;;6.72;3.60;;;26.10;99.90;;;;;;5062062;28;20730;-69
2022/07/12 06:47:01;;;;;;;5.57;3.75;;;26.20;99.90;;;;;;5084428;28;20237;-68
2022/07/12 06:49:27;;;;;;;7.72;4.03;;;26.30;99.90;;;;;;5085129;28;20210;-68
2022/07/12 06:51:54;;;;;;;6.22;3.92;;;26.60;99.90;;;;;;5076128;28;20566;-68
2022/07/12 06:54:20;;;;;;;9.80;4.10;;;26.60;99.90;;;;;;5062182;28;21061;-68
2022/07/12 06:56:47;;;;;;;10.35;4.32;;;26.70;99.90;;;;;;5066281;28;20194;-68
2022/07/12 06:59:13;;;;;;;4.93;3.60;;;26.80;99.90;;;;;;5075731;28;20194;-68
2022/07/12 07:01:40;;;;;;;8.63;4.50;;;26.90;99.90;;;;;;5051391;28;20346;-69
2022/07/12 07:04:06;;;;;;;5.78;3.92;;;27.00;99.90;;;;;;5073234;28;20199;-68
2022/07/12 07:06:33;;;;;;;4.18;3.63;;;27.00;99.90;;;;;;5082127;28;20185;-68
2022/07/12 07:08:59;;;;;;;8.30;4.38;;;27.00;99.90;;;;;;5084270;28;20190;-68
2022/07/12 07:11:26;;;;;;;8.98;4.20;;;27.10;99.90;;;;;;5086357;28;20201;-69
2022/07/12 07:13:53;;;;;;;9.35;4.22;;;27.30;99.90;;;;;;5067887;28;20192;-70
2022/07/12 07:16:22;;;;;;;9.82;4.50;;;27.40;99.90;;;;;;5067282;28;21022;-68
2022/07/12 07:18:48;;;;;;;8.55;4.18;;;27.40;99.90;;;;;;5068296;28;20196;-70
2022/07/12 07:21:15;;;;;;;4.53;3.70;;;27.50;99.90;;;;;;5065803;28;20211;-70
2022/07/12 07:23:41;;;;;;;7.05;4.13;;;27.60;99.90;;;;;;5075020;28;20270;-67
2022/07/12 07:26:07;;;;;;;8.38;4.50;;;27.60;99.90;;;;;;5086487;28;20213;-68
2022/07/12 07:30:51;;;;;;;7.28;4.30;;;27.70;99.90;;;;;;5066981;28;20185;-69
2022/07/12 07:31:20;;;;;;;7.90;4.68;;;27.80;99.90;;;;;;5088193;28;20235;-68
2022/07/12 07:33:47;;;;;;;12.32;4.30;;;27.80;99.90;;;;;;5064169;28;20215;-69
2022/07/12 07:36:13;;;;;;;11.93;4.20;;;28.00;99.90;;;;;;5083446;28;20194;-67
2022/07/12 07:38:40;;;;;;;7.63;4.70;;;28.00;99.90;;;;;;5062988;28;20201;-70
2022/07/12 07:41:07;;;;;;;7.90;4.40;;;28.10;99.90;;;;;;5079086;28;20221;-68
2022/07/12 07:43:34;;;;;;;6.22;4.10;;;28.20;99.90;;;;;;5083279;28;20182;-69
2022/07/12 07:46:01;;;;;;;11.13;4.32;;;28.30;99.90;;;;;;5061835;28;20923;-68
2022/07/12 07:48:29;;;;;;;6.18;4.30;;;28.40;99.90;;;;;;5083685;28;20186;-68
2022/07/12 07:50:55;;;;;;;6.72;4.50;;;28.40;99.90;;;;;;5066899;28;20234;-68
2022/07/12 07:53:25;;;;;;;8.80;4.38;;;28.50;99.90;;;;;;5075185;28;20194;-68
2022/07/12 07:55:52;;;;;;;6.30;4.65;;;28.60;99.90;;;;;;5082807;28;20349;-70
2022/07/12 07:58:20;;;;;;;10.10;3.90;;;28.70;99.90;;;;;;5082706;28;20286;-68
2022/07/12 08:00:50;;;;;;;8.18;4.45;;;28.70;99.90;;;;;;5084804;28;20237;-67
2022/07/12 08:03:18;;;;;;;13.32;4.43;;;28.80;99.90;;;;;;5078944;28;20174;-68
2022/07/12 08:05:44;;;;;;;8.57;4.50;;;28.90;99.90;;;;;;5063497;28;20197;-68
2022/07/12 08:08:11;;;;;;;9.05;4.60;;;29.00;99.90;;;;;;5082791;28;20216;-68
2022/07/12 08:10:38;;;;;;;10.27;4.22;;;29.00;99.90;;;;;;5062142;28;20186;-68
2022/07/12 08:13:04;;;;;;;8.75;4.32;;;29.10;99.90;;;;;;5087718;28;20281;-70
2022/07/12 08:15:31;;;;;;;8.23;4.57;;;29.20;99.90;;;;;;5090402;28;20190;-68
2022/07/12 08:17:57;;;;;;;8.93;4.28;;;29.20;99.90;;;;;;5088529;28;21026;-69
2022/07/12 08:20:25;;;;;;;14.05;4.78;;;29.30;99.90;;;;;;5065734;28;20238;-70
2022/07/12 08:22:51;;;;;;;8.93;4.15;;;29.40;99.90;;;;;;5046100;28;20190;-69
2022/07/12 08:25:18;;;;;;;11.57;4.25;;;29.50;99.90;;;;;;5077956;28;20185;-67
2022/07/12 08:27:44;;;;;;;5.60;4.05;;;29.60;99.90;;;;;;5083236;28;20197;-70
2022/07/12 08:30:11;;;;;;;10.57;4.68;;;29.60;99.90;;;;;;5085126;28;20204;-68
2022/07/12 08:32:42;;;;;;;10.18;4.28;;;29.70;99.90;;;;;;5085345;28;20182;-68
2022/07/12 08:35:09;;;;;;;7.88;4.88;;;29.70;99.90;;;;;;5068504;28;20678;-67
2022/07/12 08:37:35;;;;;;;10.02;4.38;;;29.80;99.90;;;;;;5090721;28;20182;-68
2022/07/12 08:40:02;;;;;;;10.27;4.53;;;29.90;99.90;;;;;;5071121;28;20221;-68
2022/07/12 08:42:28;;;;;;;10.38;4.35;;;30.00;99.90;;;;;;5067393;28;20863;-68
2022/07/12 08:44:59;;;;;;;7.70;4.70;;;30.10;99.90;;;;;;5087224;28;20679;-68
2022/07/12 08:47:26;;;;;;;9.60;4.30;;;30.20;99.90;;;;;;5070226;28;20317;-68
2022/07/12 08:50:23;;;;;;;7.65;4.28;;;30.20;99.90;;;;;;5081125;28;20197;-68
2022/07/12 08:52:54;;;;;;;6.38;4.45;;;30.30;99.90;;;;;;5048873;28;20245;-70
2022/07/12 08:55:37;;;;;;;7.38;4.85;;;30.40;99.90;;;;;;5066306;28;20186;-68
2022/07/12 08:58:14;;;;;;;8.32;4.32;;;30.40;99.90;;;;;;5076797;28;20205;-69
2022/07/12 09:00:40;;;;;;;10.98;4.75;;;30.60;99.90;;;;;;5088608;28;20206;-71
2022/07/12 09:03:07;;;;;;;8.13;4.60;;;30.50;99.90;;;;;;5065147;28;20666;-67
2022/07/12 09:05:35;;;;;;;10.18;4.65;;;30.60;99.90;;;;;;5086427;28;20198;-67
2022/07/12 09:08:10;;;;;;;7.03;3.85;;;30.60;99.90;;;;;;5090151;28;20182;-68
2022/07/12 09:11:00;;;;;;;6.65;4.40;;;30.70;99.90;;;;;;5074329;28;20209;-70
2022/07/12 09:13:51;;;;;;;9.73;4.35;;;30.80;99.90;;;;;;5061902;28;20209;-69
2022/07/12 09:16:24;;;;;;;5.68;4.40;;;31.00;99.90;;;;;;5076566;28;20253;-68
2022/07/12 09:19:10;;;;;;;5.20;3.92;;;31.00;99.90;;;;;;5050947;28;20194;-69
2022/07/12 09:21:37;;;;;;;9.05;4.18;;;31.00;99.90;;;;;;5084800;28;20216;-68
2022/07/12 09:24:04;;;;;;;5.53;4.15;;;31.00;99.90;;;;;;5054512;28;20201;-68
2022/07/12 09:26:32;;;;;;;8.75;4.10;;;31.10;99.90;;;;;;5058824;28;20225;-69
2022/07/12 09:29:12;;;;;;;6.43;4.07;;;31.20;99.90;;;;;;5062012;28;20189;-67
2022/07/12 09:37:17;;;;;;;8.68;3.95;;;31.70;99.90;;;;;;5087027;28;20193;-69
2022/07/12 09:39:44;;;;;;;9.15;4.50;;;31.70;99.90;;;;;;5070197;28;20260;-69
2022/07/12 09:42:12;;;;;;;10.68;4.40;;;31.70;99.90;;;;;;5062835;28;20669;-68
2022/07/12 09:44:40;;;;;;;12.13;4.68;;;31.90;99.90;;;;;;5086826;28;20190;-67
2022/07/12 09:47:15;;;;;;;8.20;4.38;;;31.80;99.90;;;;;;5088416;28;20186;-68
2022/07/12 09:49:44;;;;;;;8.68;4.18;;;32.00;99.90;;;;;;5068999;28;20243;-70
2022/07/12 09:52:24;;;;;;;9.15;4.20;;;32.00;99.90;;;;;;5046064;28;20634;-68
2022/07/12 09:54:53;;;;;;;9.65;3.95;;;32.10;99.90;;;;;;5087286;28;20300;-68
2022/07/12 09:57:43;;;;;;;7.68;4.38;;;32.20;99.90;;;;;;5073382;28;20183;-70
2022/07/12 10:00:11;;;;;;;7.70;4.40;;;32.20;99.90;;;;;;5083931;28;20216;-67
2022/07/12 10:02:41;;;;;;;7.68;4.00;;;32.20;99.90;;;;;;5068185;28;20183;-68
2022/07/12 10:05:10;;;;;;;11.00;3.83;;;32.30;99.90;;;;;;5083033;28;20217;-69
2022/07/12 10:07:40;;;;;;;8.18;4.28;;;32.30;99.90;;;;;;5073758;28;20193;-71
2022/07/12 10:10:11;;;;;;;6.50;4.10;;;32.50;99.90;;;;;;5060212;28;20190;-70
2022/07/12 10:12:40;;;;;;;5.65;3.78;;;32.50;99.90;;;;;;5061080;28;20198;-68
2022/07/12 10:15:15;;;;;;;8.18;4.32;;;32.50;99.90;;;;;;5068587;28;20239;-68
2022/07/12 10:17:51;;;;;;;8.38;4.10;;;32.60;99.90;;;;;;5069006;28;20217;-68
2022/07/12 10:20:26;;;;;;;8.07;3.75;;;32.50;99.90;;;;;;5088910;28;20210;-69
2022/07/12 10:23:20;;;;;;;8.32;3.55;;;32.50;99.90;;;;;;5066822;28;20190;-70
2022/07/12 10:25:48;;;;;;;9.90;3.92;;;32.30;99.90;;;;;;5039742;28;20224;-70
2022/07/12 10:28:15;;;;;;;10.38;3.95;;;32.60;99.90;;;;;;5072482;28;20185;-70
2022/07/12 10:30:48;;;;;;;7.30;3.78;;;32.50;99.90;;;;;;5054973;28;20186;-69
2022/07/12 10:33:24;;;;;;;6.72;3.60;;;32.50;99.90;;;;;;5062535;28;20289;-68
2022/07/12 10:36:07;;;;;;;10.82;3.67;;;32.70;99.90;;;;;;5082142;28;20202;-68
2022/07/12 10:38:35;;;;;;;5.30;3.47;;;32.70;99.90;;;;;;5086335;28;20190;-68
2022/07/12 10:41:22;;;;;;;10.23;3.90;;;32.80;99.90;;;;;;5060354;28;20210;-71
2022/07/12 10:44:34;;;;;;;7.03;3.60;;;32.90;99.90;;;;;;5069357;28;20197;-69
2022/07/12 10:47:02;;;;;;;7.30;3.20;;;32.90;99.90;;;;;;5075040;28;20637;-68
2022/07/12 10:49:31;;;;;;;6.05;3.97;;;32.90;99.90;;;;;;5044714;28;20179;-68
2022/07/12 10:52:13;;;;;;;5.43;3.15;;;32.80;99.90;;;;;;5063674;28;20190;-68
2022/07/12 10:54:42;;;;;;;8.95;3.75;;;32.80;99.90;;;;;;5065861;28;20197;-68
2022/07/12 10:57:08;;;;;;;6.45;3.25;;;32.90;99.90;;;;;;5050821;28;20239;-71
2022/07/12 10:59:37;;;;;;;9.23;3.40;;;32.80;99.90;;;;;;5044751;28;20186;-70
2022/07/12 11:02:05;;;;;;;5.82;3.72;;;32.80;99.90;;;;;;5066716;28;20229;-68
2022/07/12 11:04:33;;;;;;;7.88;3.55;;;32.80;99.90;;;;;;5063406;28;20186;-68
2022/07/12 11:07:02;;;;;;;6.93;3.63;;;32.70;99.70;;;;;;5062976;28;20194;-68
2022/07/12 11:09:29;;;;;;;5.55;3.42;;;32.70;99.90;;;;;;5065438;28;20312;-70
2022/07/12 11:11:55;;;;;;;10.23;3.40;;;32.60;99.50;;;;;;5081703;28;20189;-69
2022/07/12 11:14:32;;;;;;;7.97;3.58;;;32.60;99.90;;;;;;5066432;28;20266;-68
2022/07/12 11:17:02;;;;;;;8.20;3.80;;;32.40;99.90;;;;;;5081674;28;20223;-70
2022/07/12 11:19:33;;;;;;;8.82;3.63;;;32.60;99.90;;;;;;5055164;28;20214;-68
2022/07/12 11:21:59;;;;;;;9.75;3.90;;;32.60;99.90;;;;;;5083055;28;20273;-70
2022/07/12 11:24:32;;;;;;;8.95;3.45;;;32.60;99.30;;;;;;5088354;28;20185;-69
2022/07/12 11:26:59;;;;;;;5.45;3.30;;;32.60;99.70;;;;;;5079025;28;20265;-69
2022/07/12 11:29:26;;;;;;;6.72;3.35;;;32.60;99.90;;;;;;5077178;28;20182;-70
2022/07/12 11:32:05;;;;;;;6.30;3.50;;;32.70;99.50;;;;;;5067436;28;20247;-69
2022/07/12 11:34:35;;;;;;;8.23;3.30;;;32.40;99.40;;;;;;5081014;28;20316;-68
2022/07/12 11:37:01;;;;;;;6.75;3.78;;;32.50;99.90;;;;;;5063138;28;20190;-69
2022/07/12 11:39:37;;;;;;;8.85;3.80;;;32.40;99.90;;;;;;5089191;28;20205;-71
2022/07/12 11:42:06;;;;;;;6.97;3.90;;;32.50;99.90;;;;;;5078465;28;20218;-68
2022/07/12 11:44:50;;;;;;;8.68;3.60;;;32.60;99.90;;;;;;5049746;28;20209;-70
2022/07/12 11:47:20;;;;;;;6.07;3.40;;;32.60;99.50;;;;;;5064123;28;20197;-69
2022/07/12 11:49:55;;;;;;;7.75;4.22;;;32.40;99.90;;;;;;5071950;28;20224;-69
2022/07/12 11:52:24;;;;;;;7.07;3.75;;;32.50;99.90;;;;;;5054874;28;20217;-69
2022/07/12 11:54:53;;;;;;;8.68;3.55;;;32.50;99.40;;;;;;5051891;28;20682;-71
2022/07/12 11:57:21;;;;;;;6.53;3.40;;;32.50;99.90;;;;;;5063506;28;20248;-68
2022/07/12 11:59:48;;;;;;;7.85;3.60;;;32.60;99.90;;;;;;5079127;28;20201;-69
2022/07/12 12:02:16;;;;;;;5.63;3.60;;;32.40;99.90;;;;;;5076100;28;20186;-68
2022/07/12 12:04:55;;;;;;;6.45;3.40;;;32.40;99.90;;;;;;5086390;28;20186;-70
2022/07/12 12:07:24;;;;;;;12.40;3.80;;;32.50;99.40;;;;;;5083899;28;20221;-68
2022/07/12 12:10:11;;;;;;;6.97;3.47;;;32.60;99.70;;;;;;5060337;28;20261;-71
2022/07/12 12:12:41;;;;;;;5.18;3.45;;;32.70;97.80;;;;;;5062535;28;20197;-68
2022/07/12 12:15:12;;;;;;;5.03;3.50;;;32.70;97.80;;;;;;5060186;28;20190;-68
2022/07/12 12:17:56;;;;;;;10.30;3.80;;;32.50;97.30;;;;;;5063774;28;20235;-70
2022/07/12 12:20:29;;;;;;;6.82;3.70;;;32.60;98.70;;;;;;5062331;28;20203;-70
2022/07/12 12:23:02;;;;;;;8.38;3.60;;;32.60;99.30;;;;;;5087760;28;20196;-69
2022/07/12 12:25:31;;;;;;;6.85;3.70;;;32.60;98.90;;;;;;5088316;28;20280;-68
2022/07/12 12:28:05;;;;;;;10.00;3.50;;;32.50;99.00;;;;;;5087549;28;20696;-70
2022/07/12 12:30:33;;;;;;;10.13;3.47;;;32.60;99.30;;;;;;5060895;28;20194;-69
2022/07/12 12:33:06;;;;;;;6.90;3.70;;;32.50;99.80;;;;;;5059239;28;20198;-69
2022/07/12 12:35:36;;;;;;;5.95;3.60;;;32.50;99.40;;;;;;5078183;28;20190;-71
2022/07/12 12:38:11;;;;;;;11.68;3.60;;;32.30;99.20;;;;;;5066728;28;20212;-69
2022/07/12 12:40:38;;;;;;;10.02;3.88;;;32.40;99.10;;;;;;5083914;28;20878;-69
2022/07/12 12:43:17;;;;;;;6.28;3.97;;;32.30;99.50;;;;;;5082208;28;20194;-69
2022/07/12 12:45:57;;;;;;;7.88;3.70;;;32.40;99.00;;;;;;5063844;28;20190;-68
2022/07/12 12:48:26;;;;;;;11.50;3.67;;;32.40;98.40;;;;;;5059965;28;20277;-70
2022/07/12 12:51:08;;;;;;;5.50;3.60;;;32.50;98.10;;;;;;5053012;28;20197;-68
2022/07/12 12:53:37;;;;;;;6.38;3.67;;;32.50;98.10;;;;;;5063734;28;20186;-68
2022/07/12 12:56:11;;;;;;;8.85;3.53;;;32.40;97.80;;;;;;5084871;28;20392;-69
2022/07/12 12:58:38;;;;;;;3.85;3.40;;;32.30;97.80;;;;;;5064015;28;20274;-69
2022/07/12 13:01:06;;;;;;;6.32;3.17;;;32.20;98.80;;;;;;5082879;28;20844;-70
2022/07/12 13:03:33;;;;;;;7.57;4.00;;;32.20;98.70;;;;;;5075345;28;20178;-69